Roswell Industrial, NM

8:43 PM MDT on May 22, 2015 (GMT -0600)
Roswell Industrial | | Change Station
CLOSE
Current Station
Airport
Location: Roswell,
Elevation: 3668 ft
Nearby Weather Stations
Active Advisory: Flash Flood Watch Active Notice: Public Information Statement

Elev 3668 ft 33.30 °N, 104.53 °W | Updated 52 minutes ago

Clear
Clear
71 °F
Feels Like 71 °F
N
22
Wind Variable Wind from SSE
Gusts 31 mph

Today
High -- | Low -- °F
--% Chance of Precip.
Yesterday
High -- | Low -- °F
Precip. -- in
5:53 AM 7:56 PM
Waxing Crescent, 26% visible
Pressure 29.81 in
Visibility 10.0 miles
Clouds Clear
Dew Point 58 °F
Humidity 63%
Rainfall 0.00 in
Snow Depth Not available.
UV 0 out of 12
Pollen 4.30 out of 12
Air Quality Not available.
Flu Activity Local Activity
METAR KROW 230151Z 15019G27KT 10SM CLR 22/14 A2995 RMK AO2 PK WND 15027/0144 SLP094 T02170144

More Conditions Fewer Conditions

Pressure 29.81 in
Visibility 10.0 miles
Clouds Clear
Dew Point 58 °F
Humidity 63%
Rainfall 0.00 in
Snow Depth Not available.
UV 0 out of 12
Pollen 4.30 out of 12
Air Quality Not available.
Flu Activity Local Activity
METAR KROW 230151Z 15019G27KT 10SM CLR 22/14 A2995 RMK AO2 PK WND 15027/0144 SLP094 T02170144

More Conditions Fewer Conditions

10-Day Weather Forecast

Almanac

Astronomy

May. 22, 2015 Rise Set
Actual Time
Civil Twilight
Nautical Twilight
Astronomical Twilight
Moon
Length of Visible Light
Length of Day
Tomorrow will be .
, % of the Moon is Illuminated

Today's Extremes

State Highs State Lows

Community

WunderPhotos

Upload Photos

1,823,371 photos uploaded!

WunderBlogs® & News

Nearby

Air Quality

  Air Quality AQ Index Pollutant
Not available.

Snow Depth

Station Depth Elevation

Earthquake Activity

City Distance Mag. Time & Date
Minimum magnitude displayed is 2.5.

Coastal Water Temperatures

Place Temperature

Stations

Nearby Weather Stations

Station Location Temp. Windchill Dew Point Humidity Wind Precip. Elev Updated Type
                   
Flash Flood Watch
Statement as of 3:59 PM MDT on May 22, 2015

... Flash Flood Watch in effect through late tonight...

The National Weather Service in Albuquerque has expanded the

* Flash Flood Watch to include a portion of north and central nm...
including the following areas... Chaves County plains.

* Through late tonight

* areas of heavy rain due to strong to severe thunderstorms are
expected. Widespread rainfall totals of 1/2 to 1 inch are
expected with localized 2 to 4 inch amounts possible.

* Rapid runoff from heavy rainfall may result in flash flooding of
flood prone and urban areas.

Precautionary/preparedness actions...

A Flash Flood Watch means that conditions may develop that lead to
flash flooding. Flash flooding is a very dangerous situation.
Monitor later forecasts and be prepared to take action should flash
flood warnings be issued.